sensor_id;sensor_type;location;lat;lon;timestamp;P1;durP1;ratioP1;P2;durP2;ratioP2
41705;SDS011;27385;51.096;17.190;2023-04-06T00:01:16;100.40;;;47.00;;
41705;SDS011;27385;51.096;17.190;2023-04-06T00:03:46;96.90;;;45.00;;
41705;SDS011;27385;51.096;17.190;2023-04-06T00:06:17;90.30;;;43.10;;
41705;SDS011;27385;51.096;17.190;2023-04-06T00:08:48;85.00;;;42.60;;
41705;SDS011;27385;51.096;17.190;2023-04-06T00:11:19;81.70;;;41.30;;
41705;SDS011;27385;51.096;17.190;2023-04-06T00:13:50;87.70;;;41.60;;
41705;SDS011;27385;51.096;17.190;2023-04-06T00:16:20;79.70;;;36.60;;
41705;SDS011;27385;51.096;17.190;2023-04-06T00:18:51;73.40;;;35.60;;
41705;SDS011;27385;51.096;17.190;2023-04-06T00:21:23;76.40;;;36.30;;
41705;SDS011;27385;51.096;17.190;2023-04-06T00:23:54;75.90;;;36.00;;
41705;SDS011;27385;51.096;17.190;2023-04-06T00:26:25;70.90;;;33.50;;
41705;SDS011;27385;51.096;17.190;2023-04-06T00:28:55;76.80;;;36.10;;
41705;SDS011;27385;51.096;17.190;2023-04-06T00:31:26;67.70;;;32.90;;
41705;SDS011;27385;51.096;17.190;2023-04-06T00:33:57;65.80;;;31.40;;
41705;SDS011;27385;51.096;17.190;2023-04-06T00:36:28;70.00;;;32.10;;
41705;SDS011;27385;51.096;17.190;2023-04-06T00:38:59;75.40;;;33.70;;
41705;SDS011;27385;51.096;17.190;2023-04-06T00:41:30;69.90;;;31.20;;
41705;SDS011;27385;51.096;17.190;2023-04-06T00:44:01;72.60;;;32.70;;
41705;SDS011;27385;51.096;17.190;2023-04-06T00:46:31;71.30;;;32.10;;
41705;SDS011;27385;51.096;17.190;2023-04-06T00:49:03;68.40;;;30.80;;
41705;SDS011;27385;51.096;17.190;2023-04-06T00:51:34;71.30;;;31.90;;
41705;SDS011;27385;51.096;17.190;2023-04-06T00:54:05;63.40;;;30.00;;
41705;SDS011;27385;51.096;17.190;2023-04-06T00:56:36;70.50;;;31.10;;
41705;SDS011;27385;51.096;17.190;2023-04-06T00:59:06;76.80;;;36.90;;
41705;SDS011;27385;51.096;17.190;2023-04-06T01:01:37;72.10;;;33.70;;
41705;SDS011;27385;51.096;17.190;2023-04-06T01:04:09;71.50;;;32.00;;
41705;SDS011;27385;51.096;17.190;2023-04-06T01:06:40;65.70;;;30.90;;
41705;SDS011;27385;51.096;17.190;2023-04-06T01:09:11;66.70;;;29.80;;
41705;SDS011;27385;51.096;17.190;2023-04-06T01:11:43;59.90;;;26.50;;
41705;SDS011;27385;51.096;17.190;2023-04-06T01:14:14;54.10;;;27.80;;
41705;SDS011;27385;51.096;17.190;2023-04-06T01:16:45;50.30;;;22.70;;
41705;SDS011;27385;51.096;17.190;2023-04-06T01:19:16;50.00;;;23.40;;
41705;SDS011;27385;51.096;17.190;2023-04-06T01:21:48;52.40;;;23.50;;
41705;SDS011;27385;51.096;17.190;2023-04-06T01:24:20;53.30;;;25.40;;
41705;SDS011;27385;51.096;17.190;2023-04-06T01:26:51;51.10;;;22.70;;
41705;SDS011;27385;51.096;17.190;2023-04-06T01:29:22;50.90;;;24.50;;
41705;SDS011;27385;51.096;17.190;2023-04-06T01:31:53;48.20;;;22.90;;
41705;SDS011;27385;51.096;17.190;2023-04-06T01:34:24;49.70;;;22.70;;
41705;SDS011;27385;51.096;17.190;2023-04-06T01:36:54;47.90;;;22.00;;
41705;SDS011;27385;51.096;17.190;2023-04-06T01:39:25;48.70;;;19.90;;
41705;SDS011;27385;51.096;17.190;2023-04-06T01:41:56;45.60;;;22.40;;
41705;SDS011;27385;51.096;17.190;2023-04-06T01:44:27;45.30;;;21.50;;
41705;SDS011;27385;51.096;17.190;2023-04-06T01:46:58;48.10;;;20.70;;
41705;SDS011;27385;51.096;17.190;2023-04-06T01:49:29;49.60;;;22.80;;
41705;SDS011;27385;51.096;17.190;2023-04-06T01:52:00;51.30;;;22.60;;
41705;SDS011;27385;51.096;17.190;2023-04-06T01:54:30;47.60;;;23.20;;
41705;SDS011;27385;51.096;17.190;2023-04-06T01:57:01;48.60;;;22.70;;
41705;SDS011;27385;51.096;17.190;2023-04-06T01:59:32;44.00;;;20.30;;
41705;SDS011;27385;51.096;17.190;2023-04-06T02:02:03;49.00;;;22.80;;
41705;SDS011;27385;51.096;17.190;2023-04-06T02:04:34;50.70;;;25.30;;
41705;SDS011;27385;51.096;17.190;2023-04-06T02:07:05;51.70;;;22.00;;
41705;SDS011;27385;51.096;17.190;2023-04-06T02:09:36;50.80;;;24.20;;
41705;SDS011;27385;51.096;17.190;2023-04-06T02:12:09;47.90;;;22.50;;
41705;SDS011;27385;51.096;17.190;2023-04-06T02:14:40;54.00;;;25.30;;
41705;SDS011;27385;51.096;17.190;2023-04-06T02:17:11;56.80;;;23.50;;
41705;SDS011;27385;51.096;17.190;2023-04-06T02:19:42;47.20;;;22.10;;
41705;SDS011;27385;51.096;17.190;2023-04-06T02:22:13;56.90;;;26.80;;
41705;SDS011;27385;51.096;17.190;2023-04-06T02:24:43;56.90;;;26.20;;
41705;SDS011;27385;51.096;17.190;2023-04-06T02:27:15;52.20;;;25.90;;
41705;SDS011;27385;51.096;17.190;2023-04-06T02:29:46;51.30;;;23.20;;
41705;SDS011;27385;51.096;17.190;2023-04-06T02:32:17;53.50;;;25.70;;
41705;SDS011;27385;51.096;17.190;2023-04-06T02:34:48;56.30;;;26.00;;
41705;SDS011;27385;51.096;17.190;2023-04-06T02:37:19;54.00;;;24.70;;
41705;SDS011;27385;51.096;17.190;2023-04-06T02:39:50;53.00;;;24.80;;
41705;SDS011;27385;51.096;17.190;2023-04-06T02:42:21;55.70;;;24.60;;
41705;SDS011;27385;51.096;17.190;2023-04-06T02:44:52;49.60;;;24.00;;
41705;SDS011;27385;51.096;17.190;2023-04-06T02:47:23;56.90;;;24.60;;
41705;SDS011;27385;51.096;17.190;2023-04-06T02:49:53;49.10;;;23.30;;
41705;SDS011;27385;51.096;17.190;2023-04-06T02:52:24;58.70;;;25.30;;
41705;SDS011;27385;51.096;17.190;2023-04-06T02:54:55;56.50;;;25.10;;
41705;SDS011;27385;51.096;17.190;2023-04-06T02:57:26;55.60;;;24.90;;
41705;SDS011;27385;51.096;17.190;2023-04-06T02:59:56;50.40;;;23.70;;
41705;SDS011;27385;51.096;17.190;2023-04-06T03:02:27;52.70;;;24.50;;
41705;SDS011;27385;51.096;17.190;2023-04-06T03:04:58;57.10;;;23.60;;
41705;SDS011;27385;51.096;17.190;2023-04-06T03:07:30;54.70;;;24.10;;
41705;SDS011;27385;51.096;17.190;2023-04-06T03:10:01;51.30;;;23.30;;
41705;SDS011;27385;51.096;17.190;2023-04-06T03:12:33;57.30;;;26.20;;
41705;SDS011;27385;51.096;17.190;2023-04-06T03:15:04;54.40;;;24.20;;
41705;SDS011;27385;51.096;17.190;2023-04-06T03:17:36;53.00;;;25.40;;
41705;SDS011;27385;51.096;17.190;2023-04-06T03:20:07;66.60;;;25.70;;
41705;SDS011;27385;51.096;17.190;2023-04-06T03:22:38;59.80;;;25.50;;
41705;SDS011;27385;51.096;17.190;2023-04-06T03:25:09;67.80;;;26.50;;
41705;SDS011;27385;51.096;17.190;2023-04-06T03:27:40;67.40;;;27.70;;
41705;SDS011;27385;51.096;17.190;2023-04-06T03:30:11;57.80;;;26.30;;
41705;SDS011;27385;51.096;17.190;2023-04-06T03:32:43;62.20;;;28.00;;
41705;SDS011;27385;51.096;17.190;2023-04-06T03:35:15;53.50;;;25.90;;
41705;SDS011;27385;51.096;17.190;2023-04-06T03:37:46;57.90;;;27.00;;
41705;SDS011;27385;51.096;17.190;2023-04-06T03:40:17;63.30;;;28.30;;
41705;SDS011;27385;51.096;17.190;2023-04-06T03:42:48;54.40;;;23.90;;
41705;SDS011;27385;51.096;17.190;2023-04-06T03:45:19;58.80;;;26.60;;
41705;SDS011;27385;51.096;17.190;2023-04-06T03:47:49;60.80;;;26.20;;
41705;SDS011;27385;51.096;17.190;2023-04-06T03:50:20;56.60;;;24.30;;
41705;SDS011;27385;51.096;17.190;2023-04-06T03:52:51;56.10;;;24.10;;
41705;SDS011;27385;51.096;17.190;2023-04-06T03:55:22;66.40;;;27.30;;
41705;SDS011;27385;51.096;17.190;2023-04-06T03:57:52;57.20;;;25.90;;
41705;SDS011;27385;51.096;17.190;2023-04-06T04:00:24;60.10;;;26.10;;
41705;SDS011;27385;51.096;17.190;2023-04-06T04:02:55;49.00;;;24.50;;
41705;SDS011;27385;51.096;17.190;2023-04-06T04:05:25;60.90;;;25.20;;
41705;SDS011;27385;51.096;17.190;2023-04-06T04:07:56;57.90;;;24.90;;
41705;SDS011;27385;51.096;17.190;2023-04-06T04:10:27;54.50;;;24.40;;
41705;SDS011;27385;51.096;17.190;2023-04-06T04:12:58;63.10;;;27.20;;
41705;SDS011;27385;51.096;17.190;2023-04-06T04:15:28;69.20;;;27.40;;
41705;SDS011;27385;51.096;17.190;2023-04-06T04:18:00;58.00;;;27.20;;
41705;SDS011;27385;51.096;17.190;2023-04-06T04:20:30;52.80;;;26.70;;
41705;SDS011;27385;51.096;17.190;2023-04-06T04:23:01;60.30;;;27.60;;
41705;SDS011;27385;51.096;17.190;2023-04-06T04:25:32;61.60;;;25.80;;
41705;SDS011;27385;51.096;17.190;2023-04-06T04:28:03;59.00;;;26.80;;
41705;SDS011;27385;51.096;17.190;2023-04-06T04:30:34;58.80;;;27.00;;
41705;SDS011;27385;51.096;17.190;2023-04-06T04:33:05;63.00;;;28.70;;
41705;SDS011;27385;51.096;17.190;2023-04-06T04:35:37;59.60;;;26.80;;
41705;SDS011;27385;51.096;17.190;2023-04-06T04:38:07;64.70;;;28.00;;
41705;SDS011;27385;51.096;17.190;2023-04-06T04:40:39;63.50;;;29.70;;
41705;SDS011;27385;51.096;17.190;2023-04-06T04:43:09;65.80;;;28.60;;
41705;SDS011;27385;51.096;17.190;2023-04-06T04:45:40;66.80;;;27.20;;
41705;SDS011;27385;51.096;17.190;2023-04-06T04:48:11;59.00;;;28.20;;
41705;SDS011;27385;51.096;17.190;2023-04-06T04:50:42;62.00;;;29.40;;
41705;SDS011;27385;51.096;17.190;2023-04-06T04:53:12;62.20;;;30.90;;
41705;SDS011;27385;51.096;17.190;2023-04-06T04:55:43;69.20;;;33.50;;
41705;SDS011;27385;51.096;17.190;2023-04-06T04:58:14;67.70;;;32.20;;
41705;SDS011;27385;51.096;17.190;2023-04-06T05:00:46;65.90;;;33.40;;
41705;SDS011;27385;51.096;17.190;2023-04-06T05:03:18;71.50;;;31.90;;
41705;SDS011;27385;51.096;17.190;2023-04-06T05:05:52;75.00;;;35.10;;
41705;SDS011;27385;51.096;17.190;2023-04-06T05:08:23;65.90;;;32.70;;
41705;SDS011;27385;51.096;17.190;2023-04-06T05:10:54;77.00;;;35.60;;
41705;SDS011;27385;51.096;17.190;2023-04-06T05:13:25;81.00;;;37.60;;
41705;SDS011;27385;51.096;17.190;2023-04-06T05:15:56;83.60;;;38.20;;
41705;SDS011;27385;51.096;17.190;2023-04-06T05:18:28;81.30;;;38.50;;
41705;SDS011;27385;51.096;17.190;2023-04-06T05:20:58;90.10;;;38.80;;
41705;SDS011;27385;51.096;17.190;2023-04-06T05:23:29;86.90;;;40.40;;
41705;SDS011;27385;51.096;17.190;2023-04-06T05:26:00;88.50;;;38.10;;
41705;SDS011;27385;51.096;17.190;2023-04-06T05:28:32;88.10;;;40.10;;
41705;SDS011;27385;51.096;17.190;2023-04-06T05:31:03;81.50;;;35.80;;
41705;SDS011;27385;51.096;17.190;2023-04-06T05:33:34;88.00;;;41.70;;
41705;SDS011;27385;51.096;17.190;2023-04-06T05:36:05;87.80;;;39.20;;
41705;SDS011;27385;51.096;17.190;2023-04-06T05:38:37;85.50;;;40.40;;
41705;SDS011;27385;51.096;17.190;2023-04-06T05:41:08;88.10;;;39.60;;
41705;SDS011;27385;51.096;17.190;2023-04-06T05:43:39;85.60;;;42.70;;
41705;SDS011;27385;51.096;17.190;2023-04-06T05:46:10;82.80;;;40.30;;
41705;SDS011;27385;51.096;17.190;2023-04-06T05:48:40;79.00;;;38.90;;
41705;SDS011;27385;51.096;17.190;2023-04-06T05:51:11;88.60;;;38.70;;
41705;SDS011;27385;51.096;17.190;2023-04-06T05:53:42;80.40;;;39.70;;
41705;SDS011;27385;51.096;17.190;2023-04-06T05:56:13;98.50;;;45.00;;
41705;SDS011;27385;51.096;17.190;2023-04-06T05:58:44;102.20;;;49.20;;
41705;SDS011;27385;51.096;17.190;2023-04-06T06:01:14;217.60;;;93.80;;
41705;SDS011;27385;51.096;17.190;2023-04-06T06:03:45;195.40;;;83.10;;
41705;SDS011;27385;51.096;17.190;2023-04-06T06:06:16;147.10;;;66.80;;
41705;SDS011;27385;51.096;17.190;2023-04-06T06:08:47;129.30;;;60.60;;
41705;SDS011;27385;51.096;17.190;2023-04-06T06:11:18;118.40;;;55.20;;
41705;SDS011;27385;51.096;17.190;2023-04-06T06:13:49;110.90;;;52.10;;
41705;SDS011;27385;51.096;17.190;2023-04-06T06:16:20;88.60;;;44.00;;
41705;SDS011;27385;51.096;17.190;2023-04-06T06:18:52;74.30;;;35.70;;
41705;SDS011;27385;51.096;17.190;2023-04-06T06:21:23;77.40;;;34.00;;
41705;SDS011;27385;51.096;17.190;2023-04-06T06:23:54;71.30;;;34.00;;
41705;SDS011;27385;51.096;17.190;2023-04-06T06:26:25;72.10;;;35.70;;
41705;SDS011;27385;51.096;17.190;2023-04-06T06:28:55;71.80;;;33.20;;
41705;SDS011;27385;51.096;17.190;2023-04-06T06:31:26;74.30;;;30.30;;
41705;SDS011;27385;51.096;17.190;2023-04-06T06:33:57;67.30;;;32.00;;
41705;SDS011;27385;51.096;17.190;2023-04-06T06:36:29;61.70;;;30.00;;
41705;SDS011;27385;51.096;17.190;2023-04-06T06:39:01;89.90;;;40.40;;
41705;SDS011;27385;51.096;17.190;2023-04-06T06:41:32;92.20;;;36.90;;
41705;SDS011;27385;51.096;17.190;2023-04-06T06:44:03;64.70;;;29.50;;
41705;SDS011;27385;51.096;17.190;2023-04-06T06:46:34;74.90;;;33.50;;
41705;SDS011;27385;51.096;17.190;2023-04-06T06:49:04;70.90;;;31.90;;
41705;SDS011;27385;51.096;17.190;2023-04-06T06:51:36;75.60;;;34.30;;
41705;SDS011;27385;51.096;17.190;2023-04-06T06:54:07;66.10;;;32.10;;
41705;SDS011;27385;51.096;17.190;2023-04-06T06:56:37;66.00;;;31.10;;
41705;SDS011;27385;51.096;17.190;2023-04-06T06:59:08;66.90;;;30.30;;
41705;SDS011;27385;51.096;17.190;2023-04-06T07:01:39;68.70;;;32.10;;
41705;SDS011;27385;51.096;17.190;2023-04-06T07:04:10;69.50;;;34.90;;
41705;SDS011;27385;51.096;17.190;2023-04-06T07:06:41;63.40;;;32.20;;
41705;SDS011;27385;51.096;17.190;2023-04-06T07:09:11;72.10;;;35.50;;
41705;SDS011;27385;51.096;17.190;2023-04-06T07:11:42;66.50;;;33.20;;
41705;SDS011;27385;51.096;17.190;2023-04-06T07:14:14;72.60;;;35.00;;
41705;SDS011;27385;51.096;17.190;2023-04-06T07:16:44;74.60;;;35.50;;
41705;SDS011;27385;51.096;17.190;2023-04-06T07:19:16;74.10;;;34.20;;
41705;SDS011;27385;51.096;17.190;2023-04-06T07:21:47;62.10;;;30.00;;
41705;SDS011;27385;51.096;17.190;2023-04-06T07:24:18;65.10;;;31.10;;
41705;SDS011;27385;51.096;17.190;2023-04-06T07:26:48;57.10;;;27.00;;
41705;SDS011;27385;51.096;17.190;2023-04-06T07:29:19;60.60;;;26.60;;
41705;SDS011;27385;51.096;17.190;2023-04-06T07:31:50;50.50;;;24.80;;
41705;SDS011;27385;51.096;17.190;2023-04-06T07:34:21;53.00;;;23.60;;
41705;SDS011;27385;51.096;17.190;2023-04-06T07:36:52;53.50;;;24.40;;
41705;SDS011;27385;51.096;17.190;2023-04-06T07:39:24;46.70;;;20.80;;
41705;SDS011;27385;51.096;17.190;2023-04-06T07:41:55;48.50;;;21.30;;
41705;SDS011;27385;51.096;17.190;2023-04-06T07:44:26;45.30;;;21.60;;
41705;SDS011;27385;51.096;17.190;2023-04-06T07:46:58;52.20;;;21.40;;
41705;SDS011;27385;51.096;17.190;2023-04-06T07:49:29;50.50;;;20.90;;
41705;SDS011;27385;51.096;17.190;2023-04-06T07:52:00;46.40;;;20.20;;
41705;SDS011;27385;51.096;17.190;2023-04-06T07:54:31;42.30;;;18.30;;
41705;SDS011;27385;51.096;17.190;2023-04-06T07:57:02;50.00;;;20.10;;
41705;SDS011;27385;51.096;17.190;2023-04-06T07:59:33;37.50;;;18.40;;
41705;SDS011;27385;51.096;17.190;2023-04-06T08:02:04;38.70;;;16.70;;
41705;SDS011;27385;51.096;17.190;2023-04-06T08:04:35;41.00;;;17.90;;
41705;SDS011;27385;51.096;17.190;2023-04-06T08:07:05;42.50;;;16.80;;
41705;SDS011;27385;51.096;17.190;2023-04-06T08:09:36;37.50;;;14.70;;
41705;SDS011;27385;51.096;17.190;2023-04-06T08:12:07;35.60;;;14.50;;
41705;SDS011;27385;51.096;17.190;2023-04-06T08:14:38;34.90;;;14.00;;
41705;SDS011;27385;51.096;17.190;2023-04-06T08:17:09;30.70;;;11.10;;
41705;SDS011;27385;51.096;17.190;2023-04-06T08:19:40;28.70;;;11.10;;
41705;SDS011;27385;51.096;17.190;2023-04-06T08:22:12;30.40;;;12.40;;
41705;SDS011;27385;51.096;17.190;2023-04-06T08:24:43;28.30;;;10.20;;
41705;SDS011;27385;51.096;17.190;2023-04-06T08:27:14;22.70;;;8.80;;
41705;SDS011;27385;51.096;17.190;2023-04-06T08:29:44;30.00;;;11.30;;
41705;SDS011;27385;51.096;17.190;2023-04-06T08:32:16;31.80;;;11.80;;
41705;SDS011;27385;51.096;17.190;2023-04-06T08:34:47;27.30;;;9.20;;
41705;SDS011;27385;51.096;17.190;2023-04-06T08:37:18;29.50;;;9.80;;
41705;SDS011;27385;51.096;17.190;2023-04-06T08:39:49;22.70;;;8.50;;
41705;SDS011;27385;51.096;17.190;2023-04-06T08:42:21;25.90;;;9.50;;
41705;SDS011;27385;51.096;17.190;2023-04-06T08:44:54;23.80;;;8.70;;
41705;SDS011;27385;51.096;17.190;2023-04-06T08:47:26;24.40;;;9.10;;
41705;SDS011;27385;51.096;17.190;2023-04-06T08:49:56;30.60;;;9.10;;
41705;SDS011;27385;51.096;17.190;2023-04-06T08:52:32;27.40;;;8.90;;
41705;SDS011;27385;51.096;17.190;2023-04-06T08:55:05;22.70;;;7.70;;
41705;SDS011;27385;51.096;17.190;2023-04-06T08:57:37;24.40;;;7.40;;
41705;SDS011;27385;51.096;17.190;2023-04-06T09:00:10;20.20;;;8.20;;
41705;SDS011;27385;51.096;17.190;2023-04-06T09:02:43;18.70;;;7.10;;
41705;SDS011;27385;51.096;17.190;2023-04-06T09:05:14;17.60;;;5.70;;
41705;SDS011;27385;51.096;17.190;2023-04-06T09:07:46;17.90;;;6.20;;
41705;SDS011;27385;51.096;17.190;2023-04-06T09:10:17;19.40;;;5.10;;
41705;SDS011;27385;51.096;17.190;2023-04-06T09:12:48;18.50;;;5.90;;
41705;SDS011;27385;51.096;17.190;2023-04-06T09:15:20;22.30;;;7.60;;
41705;SDS011;27385;51.096;17.190;2023-04-06T09:17:51;20.20;;;7.40;;
41705;SDS011;27385;51.096;17.190;2023-04-06T09:20:23;19.30;;;7.40;;
41705;SDS011;27385;51.096;17.190;2023-04-06T09:22:56;22.70;;;7.30;;
41705;SDS011;27385;51.096;17.190;2023-04-06T09:25:27;19.10;;;6.50;;
41705;SDS011;27385;51.096;17.190;2023-04-06T09:27:59;22.10;;;7.40;;
41705;SDS011;27385;51.096;17.190;2023-04-06T09:30:32;18.50;;;8.00;;
41705;SDS011;27385;51.096;17.190;2023-04-06T09:33:03;18.10;;;7.20;;
41705;SDS011;27385;51.096;17.190;2023-04-06T09:35:34;20.20;;;5.80;;
41705;SDS011;27385;51.096;17.190;2023-04-06T09:38:11;17.50;;;6.20;;
41705;SDS011;27385;51.096;17.190;2023-04-06T09:40:49;17.80;;;5.50;;
41705;SDS011;27385;51.096;17.190;2023-04-06T09:43:26;14.70;;;4.30;;
41705;SDS011;27385;51.096;17.190;2023-04-06T09:45:57;18.30;;;5.60;;
41705;SDS011;27385;51.096;17.190;2023-04-06T09:48:32;16.90;;;6.00;;
41705;SDS011;27385;51.096;17.190;2023-04-06T09:51:04;18.80;;;6.30;;
41705;SDS011;27385;51.096;17.190;2023-04-06T09:53:38;18.40;;;5.20;;
41705;SDS011;27385;51.096;17.190;2023-04-06T09:56:15;18.20;;;5.70;;
41705;SDS011;27385;51.096;17.190;2023-04-06T09:58:49;19.70;;;5.70;;
41705;SDS011;27385;51.096;17.190;2023-04-06T10:01:26;20.80;;;7.40;;
41705;SDS011;27385;51.096;17.190;2023-04-06T10:04:01;16.30;;;6.20;;
41705;SDS011;27385;51.096;17.190;2023-04-06T10:06:39;19.90;;;6.50;;
41705;SDS011;27385;51.096;17.190;2023-04-06T10:09:12;20.50;;;5.40;;
41705;SDS011;27385;51.096;17.190;2023-04-06T10:11:43;20.40;;;6.20;;
41705;SDS011;27385;51.096;17.190;2023-04-06T10:14:15;18.70;;;5.70;;
41705;SDS011;27385;51.096;17.190;2023-04-06T10:16:46;13.70;;;4.20;;
41705;SDS011;27385;51.096;17.190;2023-04-06T10:19:20;14.70;;;3.70;;
41705;SDS011;27385;51.096;17.190;2023-04-06T10:21:57;12.30;;;4.30;;
41705;SDS011;27385;51.096;17.190;2023-04-06T10:24:31;12.90;;;3.40;;
41705;SDS011;27385;51.096;17.190;2023-04-06T10:27:03;12.40;;;3.20;;
41705;SDS011;27385;51.096;17.190;2023-04-06T10:29:45;11.10;;;3.30;;
41705;SDS011;27385;51.096;17.190;2023-04-06T10:32:17;18.20;;;3.80;;
41705;SDS011;27385;51.096;17.190;2023-04-06T10:34:48;13.50;;;3.40;;
41705;SDS011;27385;51.096;17.190;2023-04-06T10:37:19;13.50;;;3.70;;
41705;SDS011;27385;51.096;17.190;2023-04-06T10:39:53;13.80;;;3.80;;
41705;SDS011;27385;51.096;17.190;2023-04-06T10:42:35;11.80;;;3.00;;
41705;SDS011;27385;51.096;17.190;2023-04-06T10:45:18;10.30;;;2.90;;
41705;SDS011;27385;51.096;17.190;2023-04-06T10:47:50;10.30;;;3.40;;
41705;SDS011;27385;51.096;17.190;2023-04-06T10:50:23;10.70;;;2.80;;
41705;SDS011;27385;51.096;17.190;2023-04-06T10:53:01;15.30;;;3.70;;
41705;SDS011;27385;51.096;17.190;2023-04-06T10:55:33;13.70;;;3.80;;
41705;SDS011;27385;51.096;17.190;2023-04-06T10:58:08;13.60;;;4.60;;
41705;SDS011;27385;51.096;17.190;2023-04-06T11:00:44;12.00;;;3.90;;
41705;SDS011;27385;51.096;17.190;2023-04-06T11:03:17;14.90;;;3.90;;
41705;SDS011;27385;51.096;17.190;2023-04-06T11:05:49;16.00;;;4.20;;
41705;SDS011;27385;51.096;17.190;2023-04-06T11:08:25;18.70;;;4.80;;
41705;SDS011;27385;51.096;17.190;2023-04-06T11:11:07;14.30;;;4.60;;
41705;SDS011;27385;51.096;17.190;2023-04-06T11:13:43;12.40;;;4.00;;
41705;SDS011;27385;51.096;17.190;2023-04-06T11:16:16;14.20;;;4.90;;
41705;SDS011;27385;51.096;17.190;2023-04-06T11:18:48;14.70;;;4.80;;
41705;SDS011;27385;51.096;17.190;2023-04-06T11:21:31;14.60;;;5.00;;
41705;SDS011;27385;51.096;17.190;2023-04-06T11:24:08;11.80;;;3.40;;
41705;SDS011;27385;51.096;17.190;2023-04-06T11:26:41;15.10;;;4.50;;
41705;SDS011;27385;51.096;17.190;2023-04-06T11:29:16;16.50;;;5.90;;
41705;SDS011;27385;51.096;17.190;2023-04-06T11:31:49;13.40;;;4.20;;
41705;SDS011;27385;51.096;17.190;2023-04-06T11:34:22;18.90;;;5.00;;
41705;SDS011;27385;51.096;17.190;2023-04-06T11:36:55;16.10;;;5.20;;
41705;SDS011;27385;51.096;17.190;2023-04-06T11:39:28;15.40;;;5.10;;
41705;SDS011;27385;51.096;17.190;2023-04-06T11:42:00;17.00;;;5.60;;
41705;SDS011;27385;51.096;17.190;2023-04-06T11:44:33;17.70;;;6.30;;
41705;SDS011;27385;51.096;17.190;2023-04-06T11:47:07;19.30;;;6.40;;
41705;SDS011;27385;51.096;17.190;2023-04-06T11:49:39;17.50;;;6.40;;
41705;SDS011;27385;51.096;17.190;2023-04-06T11:52:15;20.30;;;6.50;;
41705;SDS011;27385;51.096;17.190;2023-04-06T11:54:48;18.70;;;6.50;;
41705;SDS011;27385;51.096;17.190;2023-04-06T11:57:21;17.10;;;6.50;;
41705;SDS011;27385;51.096;17.190;2023-04-06T11:59:53;17.90;;;5.60;;
41705;SDS011;27385;51.096;17.190;2023-04-06T12:02:23;18.80;;;6.60;;
41705;SDS011;27385;51.096;17.190;2023-04-06T12:04:54;22.10;;;5.90;;
41705;SDS011;27385;51.096;17.190;2023-04-06T12:07:25;22.20;;;7.00;;
41705;SDS011;27385;51.096;17.190;2023-04-06T12:09:57;19.90;;;6.00;;
41705;SDS011;27385;51.096;17.190;2023-04-06T12:12:30;16.20;;;5.90;;
41705;SDS011;27385;51.096;17.190;2023-04-06T12:15:01;19.50;;;7.40;;
41705;SDS011;27385;51.096;17.190;2023-04-06T12:17:32;16.00;;;5.50;;
41705;SDS011;27385;51.096;17.190;2023-04-06T12:20:05;20.20;;;6.70;;
41705;SDS011;27385;51.096;17.190;2023-04-06T12:22:37;16.80;;;6.30;;
41705;SDS011;27385;51.096;17.190;2023-04-06T12:25:08;17.70;;;6.50;;
41705;SDS011;27385;51.096;17.190;2023-04-06T12:27:39;16.10;;;6.30;;
41705;SDS011;27385;51.096;17.190;2023-04-06T12:30:11;18.40;;;6.10;;
41705;SDS011;27385;51.096;17.190;2023-04-06T12:32:42;18.40;;;5.80;;
41705;SDS011;27385;51.096;17.190;2023-04-06T12:35:13;17.60;;;6.10;;
41705;SDS011;27385;51.096;17.190;2023-04-06T12:37:45;15.20;;;6.00;;
41705;SDS011;27385;51.096;17.190;2023-04-06T12:40:16;13.70;;;5.00;;
41705;SDS011;27385;51.096;17.190;2023-04-06T12:42:47;17.80;;;5.40;;
41705;SDS011;27385;51.096;17.190;2023-04-06T12:45:18;16.40;;;5.70;;
41705;SDS011;27385;51.096;17.190;2023-04-06T12:47:50;13.80;;;5.30;;
41705;SDS011;27385;51.096;17.190;2023-04-06T12:50:21;16.80;;;5.30;;
41705;SDS011;27385;51.096;17.190;2023-04-06T12:52:52;16.10;;;4.20;;
41705;SDS011;27385;51.096;17.190;2023-04-06T12:55:23;15.10;;;4.60;;
41705;SDS011;27385;51.096;17.190;2023-04-06T12:57:54;14.50;;;5.20;;
41705;SDS011;27385;51.096;17.190;2023-04-06T13:00:25;16.50;;;6.30;;
41705;SDS011;27385;51.096;17.190;2023-04-06T13:02:57;18.10;;;5.60;;
41705;SDS011;27385;51.096;17.190;2023-04-06T13:05:28;13.00;;;4.50;;
41705;SDS011;27385;51.096;17.190;2023-04-06T13:07:59;12.60;;;4.50;;
41705;SDS011;27385;51.096;17.190;2023-04-06T13:10:30;17.10;;;4.50;;
41705;SDS011;27385;51.096;17.190;2023-04-06T13:13:01;13.80;;;4.30;;
41705;SDS011;27385;51.096;17.190;2023-04-06T13:15:32;11.30;;;3.60;;
41705;SDS011;27385;51.096;17.190;2023-04-06T13:18:04;15.20;;;3.80;;
41705;SDS011;27385;51.096;17.190;2023-04-06T13:20:35;11.10;;;3.50;;
41705;SDS011;27385;51.096;17.190;2023-04-06T13:23:06;12.10;;;4.70;;
41705;SDS011;27385;51.096;17.190;2023-04-06T13:25:37;11.50;;;3.60;;
41705;SDS011;27385;51.096;17.190;2023-04-06T13:28:08;15.50;;;3.60;;
41705;SDS011;27385;51.096;17.190;2023-04-06T13:30:40;13.90;;;4.10;;
41705;SDS011;27385;51.096;17.190;2023-04-06T13:33:11;18.70;;;3.80;;
41705;SDS011;27385;51.096;17.190;2023-04-06T13:35:41;10.70;;;3.10;;
41705;SDS011;27385;51.096;17.190;2023-04-06T13:38:14;13.50;;;5.00;;
41705;SDS011;27385;51.096;17.190;2023-04-06T13:40:46;16.00;;;3.80;;
41705;SDS011;27385;51.096;17.190;2023-04-06T13:43:17;14.50;;;4.50;;
41705;SDS011;27385;51.096;17.190;2023-04-06T13:45:52;11.50;;;3.10;;
41705;SDS011;27385;51.096;17.190;2023-04-06T13:48:25;12.20;;;3.70;;
41705;SDS011;27385;51.096;17.190;2023-04-06T13:50:57;11.30;;;3.70;;
41705;SDS011;27385;51.096;17.190;2023-04-06T13:53:36;12.90;;;3.70;;
41705;SDS011;27385;51.096;17.190;2023-04-06T13:56:08;12.00;;;4.00;;
41705;SDS011;27385;51.096;17.190;2023-04-06T13:58:39;15.70;;;4.90;;
41705;SDS011;27385;51.096;17.190;2023-04-06T14:01:10;21.70;;;7.70;;
41705;SDS011;27385;51.096;17.190;2023-04-06T14:03:41;30.10;;;12.90;;
41705;SDS011;27385;51.096;17.190;2023-04-06T14:06:15;74.80;;;28.90;;
41705;SDS011;27385;51.096;17.190;2023-04-06T14:08:46;18.80;;;6.90;;
41705;SDS011;27385;51.096;17.190;2023-04-06T14:11:18;18.80;;;6.00;;
41705;SDS011;27385;51.096;17.190;2023-04-06T14:13:49;12.10;;;4.00;;
41705;SDS011;27385;51.096;17.190;2023-04-06T14:16:22;13.90;;;4.50;;
41705;SDS011;27385;51.096;17.190;2023-04-06T14:18:53;15.30;;;5.60;;
41705;SDS011;27385;51.096;17.190;2023-04-06T14:21:25;17.00;;;6.60;;
41705;SDS011;27385;51.096;17.190;2023-04-06T14:23:56;13.90;;;4.50;;
41705;SDS011;27385;51.096;17.190;2023-04-06T14:26:27;10.80;;;3.90;;
41705;SDS011;27385;51.096;17.190;2023-04-06T14:28:58;11.20;;;3.90;;
41705;SDS011;27385;51.096;17.190;2023-04-06T14:31:29;15.40;;;4.40;;
41705;SDS011;27385;51.096;17.190;2023-04-06T14:34:01;11.80;;;4.10;;
41705;SDS011;27385;51.096;17.190;2023-04-06T14:36:33;13.50;;;4.80;;
41705;SDS011;27385;51.096;17.190;2023-04-06T14:39:06;12.80;;;5.10;;